createdAt,value
2023-02-07T00:01:27.370Z,95.91
2023-02-07T00:03:56.648Z,95.52
2023-02-07T00:06:36.497Z,95.43
2023-02-07T00:09:06.771Z,95.53
2023-02-07T00:11:35.359Z,95.54
2023-02-07T00:14:02.341Z,95.40
2023-02-07T00:16:29.292Z,95.35
2023-02-07T00:18:59.687Z,95.40
2023-02-07T00:21:27.821Z,95.41
2023-02-07T00:23:55.090Z,95.29
2023-02-07T00:26:24.651Z,95.88
2023-02-07T00:28:54.029Z,95.69
2023-02-07T00:31:28.337Z,96.15
2023-02-07T00:34:00.024Z,95.93
2023-02-07T00:36:28.809Z,96.25
2023-02-07T00:39:11.720Z,96.16
2023-02-07T00:41:39.197Z,96.73
2023-02-07T00:44:06.962Z,96.04
2023-02-07T00:46:34.982Z,96.76
2023-02-07T00:49:01.965Z,96.73
2023-02-07T00:51:29.118Z,96.48
2023-02-07T00:53:57.049Z,96.66
2023-02-07T00:56:26.691Z,96.74
2023-02-07T00:58:53.652Z,96.81
2023-02-07T01:01:20.984Z,97.30
2023-02-07T01:03:48.594Z,97.35
2023-02-07T01:06:15.361Z,97.18
2023-02-07T01:08:42.716Z,97.26
2023-02-07T01:11:13.789Z,97.14
2023-02-07T01:13:44.244Z,97.18
2023-02-07T01:16:27.286Z,97.27
2023-02-07T01:18:54.798Z,97.60
2023-02-07T01:21:25.029Z,97.29
2023-02-07T01:23:56.669Z,97.16
2023-02-07T01:26:25.670Z,96.98
2023-02-07T01:28:55.225Z,97.27
2023-02-07T01:31:23.548Z,96.89
2023-02-07T01:33:56.009Z,97.30
2023-02-07T01:36:23.310Z,97.05
2023-02-07T01:38:53.549Z,96.95
2023-02-07T01:41:23.009Z,96.88
2023-02-07T01:44:00.801Z,97.03
2023-02-07T01:46:29.931Z,97.17
2023-02-07T01:49:03.045Z,96.92
2023-02-07T01:51:31.945Z,96.78
2023-02-07T01:54:04.446Z,96.96
2023-02-07T01:56:33.239Z,97.04
2023-02-07T01:59:02.501Z,96.85
2023-02-07T02:01:29.915Z,96.93
2023-02-07T02:03:57.280Z,97.09
2023-02-07T02:06:28.658Z,97.50
2023-02-07T02:08:59.251Z,97.51
2023-02-07T02:11:42.057Z,97.13
2023-02-07T02:14:36.553Z,97.30
2023-02-07T02:17:25.165Z,97.14
2023-02-07T02:20:32.957Z,96.96
2023-02-07T02:23:30.310Z,96.90
2023-02-07T02:26:21.399Z,97.49
2023-02-07T02:29:45.866Z,97.04
2023-02-07T02:32:56.401Z,97.01
2023-02-07T02:35:35.048Z,97.18
2023-02-07T02:38:46.277Z,97.19
2023-02-07T02:41:24.203Z,97.52
2023-02-07T02:44:00.170Z,97.55
2023-02-07T02:46:33.110Z,97.68
2023-02-07T02:49:01.199Z,97.33
2023-02-07T02:51:32.764Z,97.35
2023-02-07T02:54:00.959Z,97.65
2023-02-07T02:56:33.871Z,97.33
2023-02-07T02:59:03.847Z,97.36
2023-02-07T03:01:57.801Z,97.52
2023-02-07T03:04:59.853Z,97.46
2023-02-07T03:08:02.233Z,97.37
2023-02-07T03:11:16.309Z,97.64
2023-02-07T03:14:44.170Z,97.48
2023-02-07T03:17:41.089Z,97.32
2023-02-07T03:20:28.625Z,97.56
2023-02-07T03:22:58.985Z,98.13
2023-02-07T03:25:28.014Z,98.09
2023-02-07T03:27:56.900Z,97.51
2023-02-07T03:30:29.118Z,97.53
2023-02-07T03:33:00.120Z,97.65
2023-02-07T03:35:38.979Z,97.62
2023-02-07T03:38:07.120Z,97.90
2023-02-07T03:40:43.640Z,97.75
2023-02-07T03:43:40.955Z,98.37
2023-02-07T03:46:10.066Z,98.02
2023-02-07T03:48:36.949Z,97.99
2023-02-07T03:51:04.026Z,98.58
2023-02-07T03:53:30.860Z,98.33
2023-02-07T03:55:57.731Z,98.06
2023-02-07T03:58:24.559Z,97.80
2023-02-07T04:00:51.593Z,98.20
2023-02-07T04:03:18.497Z,97.92
2023-02-07T04:05:46.687Z,97.71
2023-02-07T04:08:13.549Z,97.96
2023-02-07T04:10:40.323Z,98.37
2023-02-07T04:13:07.129Z,98.24
2023-02-07T04:15:34.101Z,98.12
2023-02-07T04:18:00.890Z,98.27
2023-02-07T04:20:27.959Z,98.34
2023-02-07T04:22:54.738Z,98.39
2023-02-07T04:25:21.589Z,98.16
2023-02-07T04:27:48.423Z,98.62
2023-02-07T04:30:15.258Z,98.17
2023-02-07T04:32:42.027Z,98.54
2023-02-07T04:35:09.085Z,98.50
2023-02-07T04:37:38.675Z,98.42
2023-02-07T04:40:06.121Z,98.01
2023-02-07T04:42:32.968Z,97.97
2023-02-07T04:45:00.134Z,98.38
2023-02-07T04:47:27.053Z,98.09
2023-02-07T04:49:53.829Z,97.97
2023-02-07T04:52:20.604Z,98.02
2023-02-07T04:54:47.382Z,98.79
2023-02-07T04:57:14.486Z,98.54
2023-02-07T04:59:41.414Z,98.31
2023-02-07T05:02:08.240Z,98.31
2023-02-07T05:04:35.026Z,98.29
2023-02-07T05:07:02.045Z,98.78
2023-02-07T05:09:28.888Z,98.57
2023-02-07T05:11:56.070Z,98.47
2023-02-07T05:14:22.936Z,98.76
2023-02-07T05:16:49.721Z,98.59
2023-02-07T05:19:16.595Z,98.68
2023-02-07T05:21:43.418Z,98.83
2023-02-07T05:24:10.251Z,98.91
2023-02-07T05:26:38.862Z,98.58
2023-02-07T05:29:06.851Z,98.74
2023-02-07T05:31:52.460Z,98.48
2023-02-07T05:34:19.286Z,98.36
2023-02-07T05:36:46.212Z,98.50
2023-02-07T05:39:13.059Z,98.46
2023-02-07T05:41:39.817Z,98.43
2023-02-07T05:44:07.181Z,98.38
2023-02-07T05:46:33.972Z,98.32
2023-02-07T05:49:00.879Z,98.65
2023-02-07T05:51:28.264Z,98.72
2023-02-07T05:53:55.074Z,98.58
2023-02-07T05:56:22.398Z,99.17
2023-02-07T05:58:49.188Z,98.70
2023-02-07T06:01:16.045Z,98.59
2023-02-07T06:03:42.829Z,98.32
2023-02-07T06:06:09.639Z,98.68
2023-02-07T06:08:36.705Z,99.08
2023-02-07T06:11:03.660Z,98.76
2023-02-07T06:13:30.478Z,98.79
2023-02-07T06:15:57.322Z,98.55
2023-02-07T06:18:25.058Z,98.58
2023-02-07T06:20:52.009Z,99.14
2023-02-07T06:23:20.946Z,99.02
2023-02-07T06:25:47.790Z,98.71
2023-02-07T06:28:14.755Z,98.24
2023-02-07T06:30:41.717Z,98.30
2023-02-07T06:33:08.695Z,98.64
2023-02-07T06:35:35.523Z,98.50
2023-02-07T06:38:02.404Z,98.26
2023-02-07T06:40:29.184Z,98.78
2023-02-07T06:42:56.101Z,98.63
2023-02-07T06:45:22.967Z,98.82
2023-02-07T06:47:50.072Z,98.76
2023-02-07T06:50:17.040Z,98.39
2023-02-07T06:52:44.939Z,98.29
2023-02-07T06:55:11.743Z,99.03
2023-02-07T06:57:38.531Z,98.82
2023-02-07T07:00:06.829Z,98.94
2023-02-07T07:02:33.675Z,98.39
2023-02-07T07:05:00.941Z,98.84
2023-02-07T07:07:27.860Z,98.75
2023-02-07T07:09:54.626Z,98.93
2023-02-07T07:12:22.550Z,98.59
2023-02-07T07:14:49.460Z,98.76
2023-02-07T07:17:16.214Z,98.61
2023-02-07T07:19:43.294Z,98.62
2023-02-07T07:22:10.094Z,98.61
2023-02-07T07:24:37.115Z,98.55
2023-02-07T07:27:04.123Z,98.91
2023-02-07T07:29:30.910Z,98.95
2023-02-07T07:31:57.928Z,98.91
2023-02-07T07:34:24.844Z,98.88
2023-02-07T07:36:54.250Z,98.81
2023-02-07T07:39:21.938Z,98.71
2023-02-07T07:41:49.113Z,98.60
2023-02-07T07:44:16.224Z,98.82
2023-02-07T07:46:43.082Z,99.06
2023-02-07T07:49:10.310Z,99.31
2023-02-07T07:51:37.405Z,99.32
2023-02-07T07:54:04.316Z,99.39
2023-02-07T07:56:31.796Z,98.99
2023-02-07T07:58:58.989Z,99.11
2023-02-07T08:01:26.705Z,99.06
2023-02-07T08:03:54.046Z,99.11
2023-02-07T08:06:21.348Z,99.02
2023-02-07T08:08:48.145Z,99.24
2023-02-07T08:11:15.085Z,99.30
2023-02-07T08:13:41.891Z,99.50
2023-02-07T08:16:09.129Z,99.42
2023-02-07T08:18:36.071Z,100.00
2023-02-07T08:21:03.701Z,100.00
2023-02-07T08:23:30.596Z,99.85
2023-02-07T08:25:58.175Z,99.90
2023-02-07T08:28:27.286Z,100.00
2023-02-07T08:30:54.738Z,100.00
2023-02-07T08:33:21.543Z,100.00
2023-02-07T08:35:51.397Z,99.98
2023-02-07T08:38:18.661Z,100.00
2023-02-07T08:40:46.926Z,100.00
2023-02-07T08:43:15.259Z,100.00
2023-02-07T08:45:47.412Z,100.00
2023-02-07T08:48:15.003Z,100.00
2023-02-07T08:50:41.832Z,100.00
2023-02-07T08:53:08.750Z,100.00
2023-02-07T08:55:36.051Z,100.00
2023-02-07T08:58:02.883Z,100.00
2023-02-07T09:00:29.686Z,100.00
2023-02-07T09:02:56.501Z,100.00
2023-02-07T09:05:23.321Z,100.00
2023-02-07T09:07:50.140Z,100.00
2023-02-07T09:10:16.985Z,100.00
2023-02-07T09:12:43.763Z,100.00
2023-02-07T09:15:10.870Z,100.00
2023-02-07T09:17:37.744Z,100.00
2023-02-07T09:20:05.023Z,100.00
2023-02-07T09:22:31.981Z,100.00
2023-02-07T09:24:59.383Z,100.00
2023-02-07T09:27:26.241Z,100.00
2023-02-07T09:29:53.020Z,100.00
2023-02-07T09:32:19.796Z,100.00
2023-02-07T09:34:46.606Z,100.00
2023-02-07T09:37:13.376Z,100.00
2023-02-07T09:39:41.533Z,100.00
2023-02-07T09:42:13.856Z,100.00
2023-02-07T09:45:02.397Z,100.00
2023-02-07T09:47:31.374Z,100.00
2023-02-07T09:50:14.497Z,100.00
2023-02-07T09:53:00.794Z,100.00
2023-02-07T09:55:39.511Z,100.00
2023-02-07T09:58:16.606Z,100.00
2023-02-07T10:01:00.552Z,100.00
2023-02-07T10:03:29.600Z,100.00
2023-02-07T10:06:17.463Z,100.00
2023-02-07T10:08:48.240Z,100.00
2023-02-07T10:11:51.305Z,100.00
2023-02-07T10:15:01.815Z,100.00
2023-02-07T10:18:08.298Z,100.00
2023-02-07T10:21:13.687Z,100.00
2023-02-07T10:24:18.637Z,100.00
2023-02-07T10:26:55.226Z,100.00
2023-02-07T10:29:49.400Z,100.00
2023-02-07T10:32:26.450Z,100.00
2023-02-07T10:34:58.893Z,100.00
2023-02-07T10:37:29.161Z,100.00
2023-02-07T10:40:12.277Z,100.00
2023-02-07T10:42:42.167Z,100.00
2023-02-07T10:45:14.742Z,100.00
2023-02-07T10:47:42.004Z,100.00
2023-02-07T10:50:29.429Z,100.00
2023-02-07T10:52:59.067Z,100.00
2023-02-07T10:55:47.207Z,100.00
2023-02-07T10:58:24.298Z,100.00
2023-02-07T11:00:53.973Z,100.00
2023-02-07T11:03:25.575Z,100.00
2023-02-07T11:06:04.455Z,100.00
2023-02-07T11:08:34.220Z,100.00
2023-02-07T11:11:31.948Z,100.00
2023-02-07T11:14:06.201Z,100.00
2023-02-07T11:16:33.789Z,100.00
2023-02-07T11:19:07.382Z,100.00
2023-02-07T11:21:34.091Z,100.00
2023-02-07T11:24:08.892Z,100.00
2023-02-07T11:26:41.949Z,100.00
2023-02-07T11:29:21.462Z,100.00
2023-02-07T11:31:50.151Z,100.00
2023-02-07T11:34:49.119Z,100.00
2023-02-07T11:37:42.178Z,100.00
2023-02-07T11:40:45.374Z,100.00
2023-02-07T11:43:20.304Z,100.00
2023-02-07T11:45:50.483Z,100.00
2023-02-07T11:48:21.302Z,100.00
2023-02-07T11:50:58.534Z,100.00
2023-02-07T11:53:38.910Z,100.00
2023-02-07T11:56:06.420Z,100.00
2023-02-07T11:58:46.901Z,100.00
2023-02-07T12:01:22.256Z,100.00
2023-02-07T12:04:02.256Z,100.00
2023-02-07T12:06:42.540Z,100.00
2023-02-07T12:09:48.044Z,100.00
2023-02-07T12:12:51.994Z,100.00
2023-02-07T12:15:27.490Z,100.00
2023-02-07T12:18:25.590Z,100.00
2023-02-07T12:21:23.095Z,100.00
2023-02-07T12:24:00.487Z,100.00
2023-02-07T12:26:33.227Z,100.00
2023-02-07T12:29:44.553Z,100.00
2023-02-07T12:32:27.133Z,100.00
2023-02-07T12:35:24.040Z,100.00
2023-02-07T12:38:09.328Z,100.00
2023-02-07T12:40:50.092Z,100.00
2023-02-07T12:43:38.476Z,100.00
2023-02-07T12:46:41.430Z,100.00
2023-02-07T12:49:20.283Z,100.00
2023-02-07T12:52:34.638Z,100.00
2023-02-07T12:55:44.173Z,100.00
2023-02-07T12:58:39.396Z,100.00
2023-02-07T13:01:35.683Z,100.00
2023-02-07T13:04:44.634Z,100.00
2023-02-07T13:07:40.151Z,100.00
2023-02-07T13:10:06.981Z,100.00
2023-02-07T13:12:49.693Z,100.00
2023-02-07T13:15:35.062Z,100.00
2023-02-07T13:18:17.432Z,100.00
2023-02-07T13:21:01.324Z,100.00
2023-02-07T13:23:34.128Z,100.00
2023-02-07T13:26:06.516Z,100.00
2023-02-07T13:28:53.243Z,100.00
2023-02-07T13:31:25.226Z,100.00
2023-02-07T13:33:53.853Z,100.00
2023-02-07T13:36:23.628Z,100.00
2023-02-07T13:39:03.900Z,100.00
2023-02-07T13:42:18.036Z,100.00
2023-02-07T13:45:04.700Z,100.00
2023-02-07T13:48:04.952Z,100.00
2023-02-07T13:50:53.519Z,99.97
2023-02-07T13:53:37.956Z,99.67
2023-02-07T13:56:31.409Z,99.34
2023-02-07T13:59:17.151Z,99.02
2023-02-07T14:01:52.070Z,97.67
2023-02-07T14:04:20.141Z,97.29
2023-02-07T14:07:05.467Z,96.69
2023-02-07T14:09:45.590Z,96.60
2023-02-07T14:12:22.941Z,96.15
2023-02-07T14:15:01.857Z,96.28
2023-02-07T14:17:29.550Z,96.54
2023-02-07T14:20:05.514Z,96.44
2023-02-07T14:22:41.534Z,96.34
2023-02-07T14:25:17.525Z,96.14
2023-02-07T14:28:49.232Z,96.53
2023-02-07T14:31:31.137Z,96.25
2023-02-07T14:34:14.842Z,96.43
2023-02-07T14:36:42.587Z,96.39
2023-02-07T14:39:18.820Z,95.90
2023-02-07T14:41:48.494Z,95.76
2023-02-07T14:44:36.231Z,95.18
2023-02-07T14:47:05.996Z,94.93
2023-02-07T14:49:36.822Z,95.18
2023-02-07T14:52:21.527Z,95.24
2023-02-07T14:54:59.196Z,94.96
2023-02-07T14:57:35.700Z,94.78
2023-02-07T15:00:20.732Z,94.95
2023-02-07T15:02:50.531Z,94.97
2023-02-07T15:05:19.160Z,94.94
2023-02-07T15:07:47.488Z,94.98
2023-02-07T15:10:17.562Z,95.00
2023-02-07T15:12:44.672Z,95.02
2023-02-07T15:15:29.800Z,95.07
2023-02-07T15:18:00.008Z,95.05
2023-02-07T15:20:35.909Z,95.19
2023-02-07T15:23:08.936Z,95.23
2023-02-07T15:25:36.477Z,95.28
2023-02-07T15:28:29.600Z,95.41
2023-02-07T15:31:04.896Z,95.47
2023-02-07T15:33:41.475Z,95.79
2023-02-07T15:36:37.363Z,95.77
2023-02-07T15:39:23.686Z,95.72
2023-02-07T15:41:54.781Z,96.03
2023-02-07T15:44:29.126Z,95.93
2023-02-07T15:47:04.778Z,96.16
2023-02-07T15:49:41.268Z,96.53
2023-02-07T15:52:34.502Z,96.62
2023-02-07T15:55:06.079Z,96.87
2023-02-07T15:57:37.256Z,96.73
2023-02-07T16:00:09.967Z,97.06
2023-02-07T16:02:42.619Z,96.89
2023-02-07T16:05:32.847Z,97.11
2023-02-07T16:08:09.192Z,97.09
2023-02-07T16:10:40.267Z,97.20
2023-02-07T16:13:07.113Z,97.15
2023-02-07T16:15:54.132Z,97.11
2023-02-07T16:19:07.360Z,97.19
2023-02-07T16:21:36.065Z,97.16
2023-02-07T16:24:15.098Z,97.20
2023-02-07T16:26:42.981Z,97.15
2023-02-07T16:29:16.855Z,97.16
2023-02-07T16:31:44.268Z,97.21
2023-02-07T16:34:18.250Z,97.34
2023-02-07T16:36:52.373Z,97.33
2023-02-07T16:39:19.489Z,97.45
2023-02-07T16:41:49.716Z,97.25
2023-02-07T16:44:25.808Z,97.26
2023-02-07T16:46:53.151Z,97.36
2023-02-07T16:49:26.031Z,97.25
2023-02-07T16:51:53.578Z,97.40
2023-02-07T16:54:20.751Z,97.57
2023-02-07T16:56:54.212Z,97.72
2023-02-07T16:59:22.600Z,97.69
2023-02-07T17:01:52.588Z,97.66
2023-02-07T17:04:20.224Z,97.50
2023-02-07T17:06:47.670Z,97.62
2023-02-07T17:09:18.413Z,97.72
2023-02-07T17:11:46.024Z,97.87
2023-02-07T17:14:13.076Z,97.94
2023-02-07T17:16:40.304Z,98.22
2023-02-07T17:19:28.001Z,97.86
2023-02-07T17:21:56.728Z,97.84
2023-02-07T17:24:23.642Z,97.83
2023-02-07T17:26:54.093Z,98.21
2023-02-07T17:29:21.949Z,98.35
2023-02-07T17:31:49.389Z,98.21
2023-02-07T17:34:16.663Z,98.39
2023-02-07T17:36:50.176Z,98.48
2023-02-07T17:39:19.349Z,98.53
2023-02-07T17:41:46.232Z,98.78
2023-02-07T17:44:13.078Z,98.87
2023-02-07T17:46:39.897Z,99.07
2023-02-07T17:49:14.822Z,99.10
2023-02-07T17:51:41.657Z,99.26
2023-02-07T17:54:08.703Z,99.31
2023-02-07T17:56:36.088Z,99.49
2023-02-07T17:59:07.449Z,99.61
2023-02-07T18:01:34.299Z,99.73
2023-02-07T18:04:02.733Z,99.78
2023-02-07T18:06:30.897Z,99.92
2023-02-07T18:08:58.929Z,100.00
2023-02-07T18:11:27.566Z,100.00
2023-02-07T18:13:57.141Z,100.00
2023-02-07T18:16:26.465Z,100.00
2023-02-07T18:18:56.730Z,100.00
2023-02-07T18:21:23.830Z,100.00
2023-02-07T18:23:53.423Z,100.00
2023-02-07T18:26:20.894Z,100.00
2023-02-07T18:28:48.422Z,100.00
2023-02-07T18:31:19.658Z,100.00
2023-02-07T18:33:47.752Z,100.00
2023-02-07T18:36:15.454Z,100.00
2023-02-07T18:38:42.510Z,100.00
2023-02-07T18:41:16.934Z,100.00
2023-02-07T18:43:43.935Z,100.00
2023-02-07T18:46:14.985Z,100.00
2023-02-07T18:48:42.275Z,100.00
2023-02-07T18:51:12.569Z,100.00
2023-02-07T18:53:39.659Z,100.00
2023-02-07T18:56:15.661Z,100.00
2023-02-07T18:58:43.320Z,100.00
2023-02-07T19:01:19.198Z,100.00
2023-02-07T19:03:48.564Z,100.00
2023-02-07T19:06:15.358Z,100.00
2023-02-07T19:08:42.423Z,100.00
2023-02-07T19:11:10.193Z,100.00
2023-02-07T19:13:37.290Z,100.00
2023-02-07T19:16:12.823Z,100.00
2023-02-07T19:18:40.463Z,100.00
2023-02-07T19:21:14.789Z,100.00
2023-02-07T19:23:42.812Z,100.00
2023-02-07T19:26:10.837Z,100.00
2023-02-07T19:28:38.391Z,100.00
2023-02-07T19:31:13.592Z,100.00
2023-02-07T19:33:41.131Z,100.00
2023-02-07T19:36:11.004Z,100.00
2023-02-07T19:38:38.285Z,100.00
2023-02-07T19:41:06.556Z,100.00
2023-02-07T19:43:35.222Z,100.00
2023-02-07T19:46:02.886Z,100.00
2023-02-07T19:48:29.712Z,100.00
2023-02-07T19:51:06.281Z,100.00
2023-02-07T19:53:33.760Z,100.00
2023-02-07T19:56:11.502Z,100.00
2023-02-07T19:58:46.588Z,100.00
2023-02-07T20:01:14.177Z,99.83
2023-02-07T20:03:42.921Z,99.83
2023-02-07T20:06:13.507Z,99.66
2023-02-07T20:08:41.045Z,99.47
2023-02-07T20:11:11.874Z,99.57
2023-02-07T20:13:44.362Z,99.72
2023-02-07T20:16:15.155Z,99.75
2023-02-07T20:18:42.680Z,99.71
2023-02-07T20:21:14.975Z,99.31
2023-02-07T20:23:44.314Z,99.58
2023-02-07T20:26:15.565Z,99.70
2023-02-07T20:28:43.154Z,100.00
2023-02-07T20:31:12.974Z,99.82
2023-02-07T20:33:42.174Z,99.83
2023-02-07T20:36:11.548Z,99.65
2023-02-07T20:38:38.746Z,99.78
2023-02-07T20:41:36.221Z,99.62
2023-02-07T20:44:06.956Z,99.65
2023-02-07T20:46:36.352Z,99.80
2023-02-07T20:49:07.630Z,100.00
2023-02-07T20:51:35.190Z,100.00
2023-02-07T20:54:05.385Z,100.00
2023-02-07T20:56:33.787Z,100.00
2023-02-07T20:59:01.252Z,100.00
2023-02-07T21:01:31.156Z,99.95
2023-02-07T21:04:01.832Z,99.90
2023-02-07T21:06:29.624Z,100.00
2023-02-07T21:09:01.004Z,100.00
2023-02-07T21:11:36.243Z,100.00
2023-02-07T21:14:06.320Z,100.00
2023-02-07T21:16:33.934Z,100.00
2023-02-07T21:19:01.768Z,100.00
2023-02-07T21:21:29.338Z,100.00
2023-02-07T21:23:57.381Z,100.00
2023-02-07T21:26:24.549Z,100.00
2023-02-07T21:28:51.330Z,100.00
2023-02-07T21:31:20.664Z,100.00
2023-02-07T21:33:51.676Z,100.00
2023-02-07T21:36:25.564Z,100.00
2023-02-07T21:38:55.025Z,100.00
2023-02-07T21:41:25.680Z,100.00
2023-02-07T21:43:55.502Z,100.00
2023-02-07T21:46:30.604Z,100.00
2023-02-07T21:49:01.781Z,100.00
2023-02-07T21:51:31.402Z,100.00
2023-02-07T21:53:59.070Z,100.00
2023-02-07T21:56:31.930Z,100.00
2023-02-07T21:59:02.189Z,100.00
2023-02-07T22:01:30.674Z,100.00
2023-02-07T22:04:00.290Z,100.00
2023-02-07T22:06:28.121Z,100.00
2023-02-07T22:08:58.511Z,100.00
2023-02-07T22:11:29.104Z,100.00
2023-02-07T22:13:57.032Z,100.00
2023-02-07T22:16:26.414Z,100.00
2023-02-07T22:18:55.560Z,100.00
2023-02-07T22:21:29.227Z,100.00
2023-02-07T22:23:58.169Z,100.00
2023-02-07T22:26:26.556Z,100.00
2023-02-07T22:28:53.681Z,100.00
2023-02-07T22:31:26.812Z,100.00
2023-02-07T22:33:56.073Z,100.00
2023-02-07T22:36:26.973Z,100.00
2023-02-07T22:38:54.956Z,100.00
2023-02-07T22:41:22.627Z,100.00
2023-02-07T22:43:49.896Z,100.00
2023-02-07T22:46:22.633Z,100.00
2023-02-07T22:48:50.335Z,100.00
2023-02-07T22:51:38.240Z,100.00
2023-02-07T22:54:09.651Z,100.00
2023-02-07T22:56:38.382Z,100.00
2023-02-07T22:59:06.203Z,100.00
2023-02-07T23:01:39.041Z,100.00
2023-02-07T23:04:13.357Z,100.00
2023-02-07T23:06:40.405Z,100.00
2023-02-07T23:09:07.459Z,100.00
2023-02-07T23:11:35.083Z,100.00
2023-02-07T23:14:03.486Z,100.00
2023-02-07T23:16:31.970Z,100.00
2023-02-07T23:19:14.640Z,100.00
2023-02-07T23:21:41.452Z,100.00
2023-02-07T23:24:09.011Z,100.00
2023-02-07T23:26:35.884Z,100.00
2023-02-07T23:29:04.259Z,100.00
2023-02-07T23:31:31.676Z,100.00
2023-02-07T23:33:58.586Z,100.00
2023-02-07T23:36:26.008Z,100.00
2023-02-07T23:38:52.901Z,100.00
2023-02-07T23:41:19.954Z,100.00
2023-02-07T23:43:47.048Z,100.00
2023-02-07T23:46:15.923Z,100.00
2023-02-07T23:48:43.163Z,100.00
2023-02-07T23:51:12.327Z,100.00
2023-02-07T23:53:39.501Z,100.00
2023-02-07T23:56:07.426Z,100.00
2023-02-07T23:58:34.769Z,100.00
